Weather at Dunedin International Airport

Public forecast

Using degrees Celsius for public forecast. Weather courtesy of forecast.io.

Closest aviation weather report (METAR) to Dunedin International Airport

Closest report is Christchurch International Airport, 177.1 nm (327.9 km) NE. Retrieved 2022/05/21 08:30 UTC (29 minutes ago):

NZCH 210830Z AUTO 19005KT 150V230 9999 FEW049/// 07/03 Q1004 NOSIG

Closest aviation forecast (TAF) to Dunedin International Airport

Forecast is more than 12 hours old.

Closest forecast is Queenstown International Airport, 82.1 nm (152.0 km) NW. Retrieved 2022/03/28 12:06 UTC (2 months ago):

TAF NZQN 281106Z 2812/2906 04005KT 9999 SKC BECMG 2822/2900 25010KT BECMG 2903/2905 18010KT